createdAt,value
2018-09-12T00:01:42.878Z,2.62
2018-09-12T00:04:18.288Z,3.05
2018-09-12T00:06:53.660Z,2.27
2018-09-12T00:09:29.125Z,2.15
2018-09-12T00:12:04.675Z,2.20
2018-09-12T00:14:40.214Z,1.75
2018-09-12T00:17:15.669Z,2.22
2018-09-12T00:19:50.814Z,2.17
2018-09-12T00:22:26.305Z,2.40
2018-09-12T00:25:01.850Z,2.20
2018-09-12T00:27:37.379Z,2.67
2018-09-12T00:30:12.790Z,2.42
2018-09-12T00:32:48.438Z,2.45
2018-09-12T00:35:23.936Z,2.05
2018-09-12T00:37:59.595Z,2.30
2018-09-12T00:40:34.925Z,2.47
2018-09-12T00:43:10.280Z,3.17
2018-09-12T00:45:45.669Z,2.40
2018-09-12T00:48:21.387Z,2.70
2018-09-12T00:50:57.006Z,2.75
2018-09-12T00:53:32.660Z,2.30
2018-09-12T00:56:08.044Z,2.85
2018-09-12T00:58:43.425Z,3.00
2018-09-12T01:01:18.768Z,2.30
2018-09-12T01:03:54.106Z,1.82
2018-09-12T01:06:29.375Z,2.67
2018-09-12T01:09:05.479Z,2.77
2018-09-12T01:11:40.881Z,1.67
2018-09-12T01:14:16.259Z,2.20
2018-09-12T01:16:55.546Z,1.70
2018-09-12T01:19:31.455Z,2.05
2018-09-12T01:22:06.960Z,2.80
2018-09-12T01:24:42.476Z,2.20
2018-09-12T01:27:17.741Z,2.47
2018-09-12T01:29:52.919Z,2.65
2018-09-12T01:32:28.185Z,2.72
2018-09-12T01:35:03.751Z,1.72
2018-09-12T01:37:39.188Z,2.27
2018-09-12T01:40:14.639Z,2.12
2018-09-12T01:42:50.220Z,2.40
2018-09-12T01:45:25.889Z,2.22
2018-09-12T01:48:01.454Z,2.40
2018-09-12T01:50:36.942Z,2.50
2018-09-12T01:53:12.349Z,2.35
2018-09-12T01:55:48.069Z,3.10
2018-09-12T01:58:23.485Z,2.45
2018-09-12T02:00:59.028Z,2.45
2018-09-12T02:03:34.570Z,1.95
2018-09-12T02:06:10.098Z,2.42
2018-09-12T02:08:45.408Z,2.62
2018-09-12T02:11:20.823Z,2.83
2018-09-12T02:13:56.105Z,3.00
2018-09-12T02:16:31.705Z,2.80
2018-09-12T02:19:07.218Z,2.92
2018-09-12T02:21:42.918Z,2.45
2018-09-12T02:24:18.435Z,3.25
2018-09-12T02:26:53.746Z,2.33
2018-09-12T02:29:29.105Z,2.55
2018-09-12T02:32:04.487Z,2.35
2018-09-12T02:34:39.752Z,2.58
2018-09-12T02:37:15.144Z,3.25
2018-09-12T02:39:50.475Z,3.08
2018-09-12T02:42:25.960Z,2.33
2018-09-12T02:45:01.250Z,3.05
2018-09-12T02:47:38.400Z,2.77
2018-09-12T02:50:14.459Z,3.00
2018-09-12T02:52:49.872Z,2.95
2018-09-12T02:55:25.148Z,3.52
2018-09-12T02:58:00.456Z,2.50
2018-09-12T03:00:35.686Z,2.95
2018-09-12T03:03:11.300Z,2.83
2018-09-12T03:05:46.629Z,3.50
2018-09-12T03:08:22.017Z,3.15
2018-09-12T03:10:57.385Z,2.98
2018-09-12T03:13:32.788Z,2.72
2018-09-12T03:16:08.269Z,2.90
2018-09-12T03:18:43.722Z,2.62
2018-09-12T03:21:19.098Z,2.58
2018-09-12T03:23:54.507Z,2.50
2018-09-12T03:26:30.182Z,3.12
2018-09-12T03:29:05.667Z,2.80
2018-09-12T03:31:40.958Z,2.83
2018-09-12T03:34:16.229Z,2.83
2018-09-12T03:36:51.838Z,3.10
2018-09-12T03:39:27.416Z,3.00
2018-09-12T03:42:02.778Z,2.10
2018-09-12T03:44:38.295Z,2.75
2018-09-12T03:47:13.545Z,3.15
2018-09-12T03:49:48.972Z,3.20
2018-09-12T03:52:24.147Z,3.00
2018-09-12T03:54:59.750Z,2.90
2018-09-12T03:57:35.194Z,3.35
2018-09-12T04:00:10.700Z,3.70
2018-09-12T04:02:46.492Z,3.40
2018-09-12T04:05:21.837Z,3.98
2018-09-12T04:07:57.332Z,3.80
2018-09-12T04:10:32.729Z,4.05
2018-09-12T04:13:08.187Z,4.12
2018-09-12T04:15:43.809Z,3.85
2018-09-12T04:18:19.399Z,4.35
2018-09-12T04:20:54.747Z,6.05
2018-09-12T04:23:30.160Z,4.97
2018-09-12T04:26:05.718Z,5.58
2018-09-12T04:28:41.344Z,5.20
2018-09-12T04:31:16.816Z,5.92
2018-09-12T04:33:52.327Z,5.92
2018-09-12T04:36:27.617Z,6.28
2018-09-12T04:39:03.004Z,5.60
2018-09-12T04:41:38.107Z,6.45
2018-09-12T04:44:13.370Z,5.97
2018-09-12T04:46:48.867Z,7.58
2018-09-12T04:49:24.120Z,6.75
2018-09-12T04:51:59.730Z,6.37
2018-09-12T04:54:35.249Z,7.28
2018-09-12T04:57:10.639Z,7.53
2018-09-12T04:59:46.053Z,8.08
2018-09-12T05:02:21.285Z,7.60
2018-09-12T05:04:56.555Z,7.87
2018-09-12T05:07:31.816Z,9.18
2018-09-12T05:10:07.253Z,9.48
2018-09-12T05:12:42.977Z,10.50
2018-09-12T05:15:18.357Z,11.33
2018-09-12T05:17:53.687Z,10.43
2018-09-12T05:20:29.118Z,10.88
2018-09-12T05:23:04.466Z,11.40
2018-09-12T05:25:39.708Z,13.70
2018-09-12T05:28:14.968Z,13.20
2018-09-12T05:30:50.347Z,13.68
2018-09-12T05:33:26.118Z,14.63
2018-09-12T05:36:01.416Z,13.53
2018-09-12T05:38:36.839Z,13.70
2018-09-12T05:41:12.325Z,13.18
2018-09-12T05:43:47.826Z,13.48
2018-09-12T05:46:23.262Z,12.58
2018-09-12T05:48:58.747Z,13.28
2018-09-12T05:51:35.168Z,12.20
2018-09-12T05:54:10.720Z,11.95
2018-09-12T05:56:46.416Z,11.35
2018-09-12T05:59:21.926Z,11.88
2018-09-12T06:01:57.499Z,11.63
2018-09-12T06:04:33.099Z,10.72
2018-09-12T06:07:08.426Z,10.25
2018-09-12T06:09:43.575Z,10.03
2018-09-12T06:12:18.806Z,9.50
2018-09-12T06:14:54.153Z,9.55
2018-09-12T06:17:29.518Z,9.20
2018-09-12T06:20:04.771Z,8.50
2018-09-12T06:22:40.220Z,8.23
2018-09-12T06:25:15.609Z,7.80
2018-09-12T06:27:51.006Z,8.28
2018-09-12T06:30:26.365Z,8.13
2018-09-12T06:33:02.066Z,7.58
2018-09-12T06:35:37.495Z,6.78
2018-09-12T06:38:13.114Z,7.62
2018-09-12T06:40:48.495Z,6.90
2018-09-12T06:43:23.813Z,7.40
2018-09-12T06:45:59.419Z,7.35
2018-09-12T06:48:34.859Z,7.37
2018-09-12T06:51:10.446Z,6.92
2018-09-12T06:53:45.845Z,6.35
2018-09-12T06:56:21.105Z,6.90
2018-09-12T06:58:56.465Z,5.90
2018-09-12T07:01:31.805Z,7.50
2018-09-12T07:04:07.454Z,6.70
2018-09-12T07:06:42.904Z,6.65
2018-09-12T07:09:18.368Z,6.60
2018-09-12T07:11:53.874Z,6.62
2018-09-12T07:14:29.179Z,6.22
2018-09-12T07:17:04.562Z,6.08
2018-09-12T07:19:39.885Z,6.87
2018-09-12T07:22:15.177Z,5.87
2018-09-12T07:24:50.521Z,6.17
2018-09-12T07:27:25.789Z,7.00
2018-09-12T07:30:00.975Z,6.30
2018-09-12T07:32:36.375Z,6.67
2018-09-12T07:35:11.935Z,5.95
2018-09-12T07:37:47.588Z,6.00
2018-09-12T07:40:23.018Z,6.80
2018-09-12T07:42:58.269Z,5.97
2018-09-12T07:45:33.655Z,5.85
2018-09-12T07:48:08.976Z,6.65
2018-09-12T07:50:48.725Z,5.22
2018-09-12T07:53:24.218Z,5.15
2018-09-12T07:55:59.541Z,4.95
2018-09-12T07:58:35.106Z,5.00
2018-09-12T08:01:10.427Z,4.67
2018-09-12T08:03:45.829Z,4.17
2018-09-12T08:06:21.235Z,4.12
2018-09-12T08:08:56.649Z,3.22
2018-09-12T08:11:32.050Z,3.45
2018-09-12T08:14:07.662Z,2.90
2018-09-12T08:16:43.165Z,3.10
2018-09-12T08:19:18.636Z,3.33
2018-09-12T08:21:54.110Z,2.95
2018-09-12T08:24:29.569Z,3.20
2018-09-12T08:27:05.009Z,4.12
2018-09-12T08:29:40.470Z,3.10
2018-09-12T08:32:15.656Z,2.95
2018-09-12T08:34:51.168Z,3.00
2018-09-12T08:37:26.471Z,3.55
2018-09-12T08:40:01.766Z,3.52
2018-09-12T08:42:37.046Z,2.70
2018-09-12T08:45:12.409Z,2.77
2018-09-12T08:47:47.695Z,3.25
2018-09-12T08:50:24.475Z,3.47
2018-09-12T08:52:59.923Z,2.80
2018-09-12T08:55:35.451Z,2.90
2018-09-12T08:58:10.958Z,2.55
2018-09-12T09:00:46.639Z,3.65
2018-09-12T09:03:22.077Z,2.60
2018-09-12T09:05:57.494Z,2.50
2018-09-12T09:08:32.958Z,2.98
2018-09-12T09:11:08.458Z,2.50
2018-09-12T09:13:43.984Z,2.80
2018-09-12T09:16:19.516Z,2.00
2018-09-12T09:18:55.108Z,2.67
2018-09-12T09:21:31.330Z,2.15
2018-09-12T09:24:07.004Z,2.70
2018-09-12T09:26:42.335Z,3.12
2018-09-12T09:29:17.665Z,2.30
2018-09-12T09:31:53.125Z,2.72
2018-09-12T09:34:28.388Z,2.40
2018-09-12T09:37:03.725Z,2.22
2018-09-12T09:39:38.979Z,2.75
2018-09-12T09:42:14.237Z,2.30
2018-09-12T09:44:49.619Z,2.50
2018-09-12T09:47:24.946Z,2.80
2018-09-12T09:50:00.206Z,3.70
2018-09-12T09:52:35.369Z,3.27
2018-09-12T09:55:10.853Z,2.45
2018-09-12T09:57:46.158Z,3.80
2018-09-12T10:00:26.545Z,3.05
2018-09-12T10:03:07.091Z,2.62
2018-09-12T10:05:47.523Z,2.60
2018-09-12T10:08:29.174Z,2.90
2018-09-12T10:11:04.616Z,2.70
2018-09-12T10:13:39.868Z,3.15
2018-09-12T10:16:15.114Z,3.00
2018-09-12T10:18:50.845Z,2.77
2018-09-12T10:21:26.295Z,2.65
2018-09-12T10:24:01.805Z,3.42
2018-09-12T10:26:37.254Z,2.37
2018-09-12T10:29:12.506Z,2.55
2018-09-12T10:31:48.295Z,2.40
2018-09-12T10:34:23.648Z,2.75
2018-09-12T10:36:58.865Z,1.67
2018-09-12T10:39:34.325Z,1.50
2018-09-12T10:42:09.539Z,2.25
2018-09-12T10:44:44.805Z,2.30
2018-09-12T10:47:20.168Z,2.40
2018-09-12T10:49:55.639Z,1.30
2018-09-12T10:52:31.274Z,1.92
2018-09-12T10:55:06.947Z,3.15
2018-09-12T10:57:42.244Z,1.60
2018-09-12T11:00:17.661Z,1.82
2018-09-12T11:02:53.089Z,1.20
2018-09-12T11:05:28.518Z,1.60
2018-09-12T11:08:03.875Z,1.32
2018-09-12T11:10:39.193Z,1.10
2018-09-12T11:13:14.815Z,1.40
2018-09-12T11:15:50.404Z,1.37
2018-09-12T11:18:25.734Z,2.05
2018-09-12T11:21:01.127Z,1.95
2018-09-12T11:23:36.637Z,1.47
2018-09-12T11:26:12.225Z,1.67
2018-09-12T11:28:47.638Z,1.70
2018-09-12T11:31:23.051Z,1.30
2018-09-12T11:33:58.228Z,1.30
2018-09-12T11:36:33.595Z,1.57
2018-09-12T11:39:10.965Z,1.90
2018-09-12T11:41:46.368Z,2.77
2018-09-12T11:44:21.965Z,1.20
2018-09-12T11:46:57.372Z,2.02
2018-09-12T11:49:32.788Z,1.50
2018-09-12T11:52:08.177Z,1.77
2018-09-12T11:54:43.738Z,1.40
2018-09-12T11:57:19.056Z,2.33
2018-09-12T11:59:54.317Z,1.30
2018-09-12T12:02:29.645Z,1.50
2018-09-12T12:05:05.138Z,1.40
2018-09-12T12:07:40.699Z,1.70
2018-09-12T12:10:16.328Z,1.70
2018-09-12T12:12:51.819Z,1.45
2018-09-12T12:15:27.031Z,1.30
2018-09-12T12:18:02.496Z,2.10
2018-09-12T12:20:37.951Z,1.10
2018-09-12T12:23:13.500Z,1.07
2018-09-12T12:25:48.945Z,2.00
2018-09-12T12:28:24.459Z,1.17
2018-09-12T12:30:59.666Z,1.50
2018-09-12T12:33:35.129Z,1.40
2018-09-12T12:36:10.596Z,1.30
2018-09-12T12:38:46.029Z,2.00
2018-09-12T12:41:21.520Z,2.10
2018-09-12T12:43:57.068Z,1.47
2018-09-12T12:46:32.528Z,1.13
2018-09-12T12:49:08.018Z,1.27
2018-09-12T12:51:43.629Z,1.23
2018-09-12T12:54:19.102Z,1.40
2018-09-12T12:56:54.339Z,1.17
2018-09-12T12:59:29.745Z,1.47
2018-09-12T13:02:05.138Z,1.10
2018-09-12T13:04:40.433Z,1.60
2018-09-12T13:07:15.719Z,1.67
2018-09-12T13:09:51.398Z,1.83
2018-09-12T13:12:26.836Z,1.00
2018-09-12T13:15:02.428Z,1.30
2018-09-12T13:17:37.825Z,1.17
2018-09-12T13:20:13.416Z,1.27
2018-09-12T13:22:48.975Z,1.33
2018-09-12T13:25:24.518Z,1.20
2018-09-12T13:28:00.208Z,1.27
2018-09-12T13:30:35.758Z,1.23
2018-09-12T13:33:11.304Z,0.97
2018-09-12T13:35:46.677Z,1.10
2018-09-12T13:38:22.095Z,1.20
2018-09-12T13:40:57.598Z,0.83
2018-09-12T13:43:33.105Z,1.10
2018-09-12T13:46:09.078Z,1.10
2018-09-12T13:48:44.598Z,1.60
2018-09-12T13:51:19.855Z,1.10
2018-09-12T13:53:55.306Z,1.00
2018-09-12T13:56:30.919Z,1.33
2018-09-12T13:59:06.437Z,1.20
2018-09-12T14:01:42.111Z,0.93
2018-09-12T14:04:17.649Z,1.33
2018-09-12T14:06:53.238Z,1.37
2018-09-12T14:09:28.648Z,1.40
2018-09-12T14:12:04.857Z,1.70
2018-09-12T14:14:40.234Z,1.20
2018-09-12T14:17:15.813Z,1.00
2018-09-12T14:19:51.145Z,1.10
2018-09-12T14:22:26.430Z,1.10
2018-09-12T14:25:01.840Z,1.10
2018-09-12T14:27:37.227Z,1.30
2018-09-12T14:30:12.657Z,1.33
2018-09-12T14:32:48.468Z,1.40
2018-09-12T14:35:23.805Z,1.10
2018-09-12T14:37:59.166Z,1.57
2018-09-12T14:40:34.849Z,1.47
2018-09-12T14:43:10.906Z,1.27
2018-09-12T14:45:46.605Z,1.30
2018-09-12T14:48:21.986Z,1.20
2018-09-12T14:50:58.874Z,1.47
2018-09-12T14:53:34.454Z,1.30
2018-09-12T14:56:09.926Z,1.25
2018-09-12T14:58:45.509Z,1.57
2018-09-12T15:01:21.037Z,1.40
2018-09-12T15:03:56.457Z,2.07
2018-09-12T15:06:31.951Z,1.13
2018-09-12T15:09:09.883Z,1.40
2018-09-12T15:11:45.304Z,1.67
2018-09-12T15:14:20.887Z,1.10
2018-09-12T15:16:56.505Z,1.13
2018-09-12T15:19:31.927Z,1.70
2018-09-12T15:22:07.406Z,1.40
2018-09-12T15:24:42.926Z,1.30
2018-09-12T15:27:18.250Z,1.37
2018-09-12T15:29:53.844Z,1.70
2018-09-12T15:32:29.331Z,0.90
2018-09-12T15:35:05.224Z,2.33
2018-09-12T15:37:40.797Z,1.47
2018-09-12T15:40:16.066Z,1.30
2018-09-12T15:42:51.575Z,1.62
2018-09-12T15:45:26.852Z,1.40
2018-09-12T15:48:03.375Z,2.00
2018-09-12T15:50:38.735Z,1.47
2018-09-12T15:53:14.454Z,1.17
2018-09-12T15:55:50.137Z,1.30
2018-09-12T15:58:25.524Z,2.10
2018-09-12T16:01:01.224Z,1.50
2018-09-12T16:03:36.868Z,1.50
2018-09-12T16:06:12.549Z,1.47
2018-09-12T16:08:48.033Z,1.30
2018-09-12T16:11:23.716Z,1.15
2018-09-12T16:13:59.074Z,1.42
2018-09-12T16:16:34.745Z,1.55
2018-09-12T16:19:10.273Z,1.70
2018-09-12T16:21:45.769Z,1.55
2018-09-12T16:24:21.415Z,1.35
2018-09-12T16:26:56.866Z,1.55
2018-09-12T16:29:32.218Z,1.25
2018-09-12T16:32:07.540Z,1.30
2018-09-12T16:34:42.924Z,1.30
2018-09-12T16:37:18.517Z,1.40
2018-09-12T16:39:54.705Z,1.80
2018-09-12T16:42:30.135Z,1.55
2018-09-12T16:45:05.859Z,2.12
2018-09-12T16:47:41.468Z,1.35
2018-09-12T16:50:16.982Z,1.32
2018-09-12T16:52:52.535Z,1.50
2018-09-12T16:55:27.694Z,1.57
2018-09-12T16:58:03.156Z,1.80
2018-09-12T17:00:38.285Z,1.98
2018-09-12T17:03:13.775Z,1.72
2018-09-12T17:05:49.107Z,2.25
2018-09-12T17:08:24.477Z,1.70
2018-09-12T17:10:59.835Z,2.22
2018-09-12T17:13:35.545Z,2.15
2018-09-12T17:16:11.131Z,1.60
2018-09-12T17:18:48.438Z,2.33
2018-09-12T17:21:23.845Z,1.75
2018-09-12T17:23:59.304Z,2.15
2018-09-12T17:26:34.767Z,1.65
2018-09-12T17:29:10.309Z,2.15
2018-09-12T17:31:45.968Z,1.92
2018-09-12T17:34:21.548Z,1.47
2018-09-12T17:36:56.955Z,2.00
2018-09-12T17:39:32.381Z,1.80
2018-09-12T17:42:07.564Z,1.42
2018-09-12T17:44:42.925Z,1.65
2018-09-12T17:47:18.296Z,1.30
2018-09-12T17:49:53.646Z,1.85
2018-09-12T17:52:29.199Z,2.12
2018-09-12T17:55:04.785Z,1.70
2018-09-12T17:57:40.376Z,1.50
2018-09-12T18:00:15.698Z,1.82
2018-09-12T18:02:51.372Z,1.50
2018-09-12T18:05:26.817Z,1.65
2018-09-12T18:08:02.840Z,1.72
2018-09-12T18:10:38.469Z,2.00
2018-09-12T18:13:14.052Z,2.12
2018-09-12T18:15:49.529Z,3.55
2018-09-12T18:18:24.919Z,1.72
2018-09-12T18:21:00.478Z,2.62
2018-09-12T18:23:36.009Z,2.25
2018-09-12T18:26:11.509Z,1.90
2018-09-12T18:28:47.119Z,1.77
2018-09-12T18:31:22.485Z,1.70
2018-09-12T18:33:57.916Z,1.67
2018-09-12T18:36:33.349Z,1.40
2018-09-12T18:39:09.965Z,2.20
2018-09-12T18:41:45.458Z,2.20
2018-09-12T18:44:20.996Z,2.25
2018-09-12T18:46:56.581Z,3.20
2018-09-12T18:49:32.205Z,2.62
2018-09-12T18:52:07.638Z,3.00
2018-09-12T18:54:42.925Z,2.10
2018-09-12T18:57:18.287Z,2.12
2018-09-12T18:59:53.734Z,1.90
2018-09-12T19:02:29.529Z,2.10
2018-09-12T19:05:05.125Z,3.45
2018-09-12T19:07:40.629Z,2.10
2018-09-12T19:10:16.189Z,2.20
2018-09-12T19:12:51.757Z,2.45
2018-09-12T19:15:27.076Z,3.00
2018-09-12T19:18:02.666Z,2.50
2018-09-12T19:20:37.825Z,1.90
2018-09-12T19:23:13.358Z,2.50
2018-09-12T19:25:48.868Z,2.15
2018-09-12T19:28:24.458Z,2.42
2018-09-12T19:30:59.795Z,2.35
2018-09-12T19:33:35.145Z,2.10
2018-09-12T19:36:10.615Z,2.12
2018-09-12T19:38:46.095Z,2.05
2018-09-12T19:41:21.486Z,2.25
2018-09-12T19:43:56.769Z,2.05
2018-09-12T19:46:32.158Z,2.67
2018-09-12T19:49:07.847Z,2.58
2018-09-12T19:51:43.580Z,2.58
2018-09-12T19:54:18.939Z,2.60
2018-09-12T19:56:54.288Z,2.05
2018-09-12T19:59:30.168Z,2.30
2018-09-12T20:02:05.358Z,2.50
2018-09-12T20:04:40.658Z,2.08
2018-09-12T20:07:16.149Z,2.75
2018-09-12T20:09:52.125Z,2.83
2018-09-12T20:12:27.524Z,2.80
2018-09-12T20:15:02.997Z,2.60
2018-09-12T20:17:38.548Z,2.17
2018-09-12T20:20:14.265Z,3.95
2018-09-12T20:22:49.745Z,2.80
2018-09-12T20:25:25.278Z,2.27
2018-09-12T20:28:01.628Z,2.60
2018-09-12T20:30:36.998Z,2.47
2018-09-12T20:33:12.304Z,2.00
2018-09-12T20:35:47.554Z,2.10
2018-09-12T20:38:23.116Z,2.60
2018-09-12T20:40:58.656Z,2.67
2018-09-12T20:43:34.058Z,1.92
2018-09-12T20:46:09.365Z,2.27
2018-09-12T20:48:44.678Z,1.92
2018-09-12T20:51:19.947Z,2.33
2018-09-12T20:53:55.378Z,2.80
2018-09-12T20:56:30.717Z,2.47
2018-09-12T20:59:06.214Z,2.27
2018-09-12T21:01:41.575Z,2.50
2018-09-12T21:04:17.268Z,3.02
2018-09-12T21:06:52.884Z,2.80
2018-09-12T21:09:28.528Z,2.95
2018-09-12T21:12:04.070Z,2.40
2018-09-12T21:14:39.335Z,2.65
2018-09-12T21:17:14.655Z,2.72
2018-09-12T21:19:50.179Z,2.80
2018-09-12T21:22:25.838Z,2.25
2018-09-12T21:25:01.206Z,3.20
2018-09-12T21:27:36.577Z,2.42
2018-09-12T21:30:11.948Z,2.72
2018-09-12T21:32:47.174Z,2.17
2018-09-12T21:35:22.669Z,3.12
2018-09-12T21:37:58.997Z,3.02
2018-09-12T21:40:34.520Z,2.30
2018-09-12T21:43:10.027Z,3.75
2018-09-12T21:45:45.567Z,2.10
2018-09-12T21:48:20.935Z,3.20
2018-09-12T21:50:56.496Z,2.92
2018-09-12T21:53:31.767Z,2.02
2018-09-12T21:56:07.317Z,2.62
2018-09-12T21:58:42.988Z,2.60
2018-09-12T22:01:22.459Z,2.40
2018-09-12T22:03:57.955Z,3.72
2018-09-12T22:06:33.947Z,2.60
2018-09-12T22:09:12.509Z,2.75
2018-09-12T22:11:47.877Z,2.77
2018-09-12T22:14:23.238Z,2.62
2018-09-12T22:16:58.858Z,7.65
2018-09-12T22:19:34.685Z,9.55
2018-09-12T22:22:10.095Z,8.75
2018-09-12T22:24:45.448Z,12.30
2018-09-12T22:27:21.089Z,11.40
2018-09-12T22:29:56.409Z,11.45
2018-09-12T22:32:31.915Z,8.70
2018-09-12T22:35:07.354Z,10.78
2018-09-12T22:37:42.735Z,8.05
2018-09-12T22:40:18.255Z,6.80
2018-09-12T22:42:53.764Z,7.55
2018-09-12T22:45:29.227Z,8.08
2018-09-12T22:48:04.734Z,7.70
2018-09-12T22:50:40.089Z,7.87
2018-09-12T22:53:16.282Z,6.92
2018-09-12T22:55:52.145Z,5.95
2018-09-12T22:58:27.688Z,3.27
2018-09-12T23:01:03.268Z,3.65
2018-09-12T23:03:38.857Z,3.20
2018-09-12T23:06:14.618Z,2.77
2018-09-12T23:08:50.128Z,3.25
2018-09-12T23:11:25.565Z,3.20
2018-09-12T23:14:01.078Z,2.37
2018-09-12T23:16:36.705Z,3.37
2018-09-12T23:19:11.975Z,3.05
2018-09-12T23:21:47.498Z,3.00
2018-09-12T23:24:22.915Z,2.83
2018-09-12T23:26:58.539Z,2.77
2018-09-12T23:29:34.209Z,2.95
2018-09-12T23:32:09.488Z,2.98
2018-09-12T23:34:44.838Z,2.35
2018-09-12T23:37:20.195Z,2.72
2018-09-12T23:39:55.616Z,2.60
2018-09-12T23:42:31.115Z,3.20
2018-09-12T23:45:06.841Z,2.60
2018-09-12T23:47:42.635Z,3.47
2018-09-12T23:50:18.238Z,2.22
2018-09-12T23:52:53.892Z,2.67
2018-09-12T23:55:29.529Z,2.98
2018-09-12T23:58:04.967Z,3.33
